createdAt,value
2023-05-10T00:00:31.051Z,15.46
2023-05-10T00:02:35.845Z,15.43
2023-05-10T00:04:38.813Z,15.39
2023-05-10T00:06:41.788Z,15.34
2023-05-10T00:08:44.577Z,15.29
2023-05-10T00:10:47.503Z,15.30
2023-05-10T00:12:50.549Z,15.32
2023-05-10T00:14:53.410Z,15.29
2023-05-10T00:16:56.387Z,15.30
2023-05-10T00:19:00.752Z,15.35
2023-05-10T00:21:03.590Z,15.36
2023-05-10T00:23:06.554Z,15.35
2023-05-10T00:25:10.990Z,15.35
2023-05-10T00:27:13.792Z,15.34
2023-05-10T00:29:16.618Z,15.32
2023-05-10T00:31:19.428Z,15.27
2023-05-10T00:33:22.234Z,15.28
2023-05-10T00:35:26.965Z,15.31
2023-05-10T00:37:30.157Z,15.33
2023-05-10T00:39:32.973Z,15.32
2023-05-10T00:41:35.883Z,15.33
2023-05-10T00:43:40.919Z,15.30
2023-05-10T00:45:43.999Z,15.29
2023-05-10T00:47:47.214Z,15.26
2023-05-10T00:49:50.162Z,15.23
2023-05-10T00:51:54.458Z,15.25
2023-05-10T00:53:57.777Z,15.23
2023-05-10T00:56:02.226Z,15.21
2023-05-10T00:58:05.302Z,15.19
2023-05-10T01:00:09.344Z,15.18
2023-05-10T01:02:12.770Z,15.14
2023-05-10T01:04:17.224Z,15.10
2023-05-10T01:06:20.097Z,15.09
2023-05-10T01:08:24.432Z,15.05
2023-05-10T01:10:27.471Z,15.00
2023-05-10T01:12:30.553Z,15.02
2023-05-10T01:14:33.482Z,15.04
2023-05-10T01:16:39.511Z,15.02
2023-05-10T01:18:43.933Z,15.00
2023-05-10T01:20:50.606Z,15.03
2023-05-10T01:23:16.175Z,15.04
2023-05-10T01:25:38.165Z,14.92
2023-05-10T01:28:03.412Z,14.92
2023-05-10T01:30:45.449Z,14.89
2023-05-10T01:32:57.140Z,14.92
2023-05-10T01:35:04.678Z,14.96
2023-05-10T01:37:11.252Z,14.97
2023-05-10T01:39:19.858Z,15.01
2023-05-10T01:41:30.184Z,15.01
2023-05-10T01:43:36.892Z,14.98
2023-05-10T01:45:49.331Z,15.01
2023-05-10T01:48:00.529Z,14.99
2023-05-10T01:50:06.653Z,14.96
2023-05-10T01:52:13.862Z,14.95
2023-05-10T01:54:19.630Z,14.92
2023-05-10T01:56:28.005Z,14.96
2023-05-10T01:58:33.878Z,14.94
2023-05-10T02:00:38.626Z,14.90
2023-05-10T02:02:44.138Z,14.86
2023-05-10T02:04:51.511Z,14.84
2023-05-10T02:06:56.007Z,14.86
2023-05-10T02:08:59.428Z,14.86
2023-05-10T02:11:04.634Z,14.88
2023-05-10T02:13:08.383Z,14.86
2023-05-10T02:15:13.659Z,14.82
2023-05-10T02:17:17.400Z,14.82
2023-05-10T02:19:22.238Z,14.79
2023-05-10T02:21:27.337Z,14.81
2023-05-10T02:23:30.589Z,14.80
2023-05-10T02:25:34.631Z,14.80
2023-05-10T02:27:39.151Z,14.78
2023-05-10T02:29:42.924Z,14.74
2023-05-10T02:31:47.527Z,14.69
2023-05-10T02:33:51.158Z,14.66
2023-05-10T02:35:55.327Z,14.66
2023-05-10T02:38:01.126Z,14.64
2023-05-10T02:40:07.767Z,14.63
2023-05-10T02:42:11.864Z,14.62
2023-05-10T02:44:16.979Z,14.60
2023-05-10T02:46:20.170Z,14.61
2023-05-10T02:48:23.153Z,14.62
2023-05-10T02:50:29.900Z,14.64
2023-05-10T02:52:46.424Z,14.56
2023-05-10T02:54:54.385Z,14.59
2023-05-10T02:57:00.457Z,14.59
2023-05-10T02:59:03.507Z,14.60
2023-05-10T03:01:08.383Z,14.63
2023-05-10T03:03:11.208Z,14.64
2023-05-10T03:05:14.080Z,14.68
2023-05-10T03:07:17.996Z,14.65
2023-05-10T03:09:22.154Z,14.65
2023-05-10T03:11:32.054Z,14.56
2023-05-10T03:13:47.950Z,14.61
2023-05-10T03:15:59.987Z,14.59
2023-05-10T03:18:08.843Z,14.58
2023-05-10T03:20:15.628Z,14.59
2023-05-10T03:22:26.404Z,14.56
2023-05-10T03:24:30.339Z,14.54
2023-05-10T03:26:38.125Z,14.53
2023-05-10T03:28:47.699Z,14.56
2023-05-10T03:30:52.011Z,14.57
2023-05-10T03:32:55.121Z,14.56
2023-05-10T03:34:57.990Z,14.53
2023-05-10T03:37:01.786Z,14.46
2023-05-10T03:39:07.622Z,14.43
2023-05-10T03:41:10.586Z,14.45
2023-05-10T03:43:14.773Z,14.45
2023-05-10T03:45:18.721Z,14.47
2023-05-10T03:47:21.544Z,14.48
2023-05-10T03:49:25.871Z,14.47
2023-05-10T03:51:29.287Z,14.46
2023-05-10T03:53:32.116Z,14.46
2023-05-10T03:55:37.009Z,14.47
2023-05-10T03:57:40.955Z,14.43
2023-05-10T03:59:45.933Z,14.39
2023-05-10T04:01:48.753Z,14.36
2023-05-10T04:03:51.775Z,14.30
2023-05-10T04:06:00.862Z,14.29
2023-05-10T04:08:03.979Z,14.22
2023-05-10T04:10:08.088Z,14.22
2023-05-10T04:12:11.202Z,14.19
2023-05-10T04:14:14.150Z,14.20
2023-05-10T04:16:18.372Z,14.20
2023-05-10T04:18:21.181Z,14.19
2023-05-10T04:20:23.982Z,14.15
2023-05-10T04:22:26.918Z,14.13
2023-05-10T04:24:29.708Z,14.12
2023-05-10T04:26:32.529Z,14.08
2023-05-10T04:28:35.731Z,14.12
2023-05-10T04:30:38.616Z,14.10
2023-05-10T04:32:42.826Z,14.15
2023-05-10T04:34:45.653Z,14.17
2023-05-10T04:36:48.407Z,14.10
2023-05-10T04:38:51.152Z,14.06
2023-05-10T04:40:53.988Z,14.08
2023-05-10T04:42:56.810Z,14.09
2023-05-10T04:44:59.614Z,14.05
2023-05-10T04:47:03.180Z,14.05
2023-05-10T04:49:07.489Z,14.05
2023-05-10T04:51:10.382Z,13.98
2023-05-10T04:53:15.832Z,13.99
2023-05-10T04:55:18.928Z,13.95
2023-05-10T04:57:22.207Z,13.98
2023-05-10T04:59:25.006Z,14.07
2023-05-10T05:01:28.063Z,14.14
2023-05-10T05:03:31.000Z,14.08
2023-05-10T05:05:35.167Z,14.09
2023-05-10T05:07:38.366Z,14.07
2023-05-10T05:09:41.328Z,14.08
2023-05-10T05:11:44.113Z,14.12
2023-05-10T05:13:46.914Z,14.13
2023-05-10T05:15:49.752Z,14.16
2023-05-10T05:17:52.770Z,14.18
2023-05-10T05:19:56.697Z,14.21
2023-05-10T05:22:00.861Z,14.22
2023-05-10T05:24:03.729Z,14.25
2023-05-10T05:26:06.522Z,14.25
2023-05-10T05:28:09.372Z,14.26
2023-05-10T05:30:13.498Z,14.26
2023-05-10T05:32:16.442Z,14.27
2023-05-10T05:34:21.347Z,14.29
2023-05-10T05:36:24.204Z,14.39
2023-05-10T05:38:28.385Z,14.41
2023-05-10T05:40:31.106Z,14.37
2023-05-10T05:42:33.996Z,14.42
2023-05-10T05:44:36.879Z,14.44
2023-05-10T05:46:39.790Z,14.49
2023-05-10T05:48:42.545Z,14.65
2023-05-10T05:50:46.458Z,14.58
2023-05-10T05:52:49.286Z,14.54
2023-05-10T05:54:53.438Z,14.51
2023-05-10T05:56:56.588Z,14.52
2023-05-10T05:58:59.559Z,14.58
2023-05-10T06:01:02.382Z,14.65
2023-05-10T06:03:05.442Z,14.65
2023-05-10T06:05:09.413Z,14.69
2023-05-10T06:07:12.201Z,14.70
2023-05-10T06:09:15.093Z,14.76
2023-05-10T06:11:19.240Z,14.82
2023-05-10T06:13:22.241Z,14.76
2023-05-10T06:15:25.085Z,14.73
2023-05-10T06:17:28.521Z,14.76
2023-05-10T06:19:31.721Z,14.86
2023-05-10T06:21:34.517Z,14.86
2023-05-10T06:23:37.774Z,14.86
2023-05-10T06:25:41.118Z,14.94
2023-05-10T06:27:49.039Z,14.90
2023-05-10T06:30:02.010Z,14.91
2023-05-10T06:32:09.241Z,14.94
2023-05-10T06:34:12.685Z,14.92
2023-05-10T06:36:15.536Z,14.99
2023-05-10T06:38:18.313Z,15.03
2023-05-10T06:40:21.336Z,15.04
2023-05-10T06:42:26.316Z,15.06
2023-05-10T06:44:30.481Z,15.07
2023-05-10T06:46:36.369Z,15.22
2023-05-10T06:48:39.189Z,15.22
2023-05-10T06:50:41.971Z,15.21
2023-05-10T06:52:44.863Z,15.15
2023-05-10T06:54:47.621Z,15.18
2023-05-10T06:56:50.508Z,15.23
2023-05-10T06:58:53.582Z,15.20
2023-05-10T07:01:04.033Z,15.22
2023-05-10T07:03:07.104Z,15.28
2023-05-10T07:05:10.735Z,15.33
2023-05-10T07:07:14.421Z,15.41
2023-05-10T07:09:17.299Z,15.56
2023-05-10T07:11:20.139Z,15.67
2023-05-10T07:13:23.183Z,15.65
2023-05-10T07:15:26.148Z,15.71
2023-05-10T07:17:30.363Z,15.74
2023-05-10T07:19:33.824Z,15.60
2023-05-10T07:21:37.075Z,15.62
2023-05-10T07:23:39.941Z,15.66
2023-05-10T07:25:42.922Z,15.81
2023-05-10T07:27:45.880Z,15.84
2023-05-10T07:29:48.701Z,15.92
2023-05-10T07:31:51.539Z,15.97
2023-05-10T07:33:55.798Z,16.01
2023-05-10T07:35:58.684Z,16.02
2023-05-10T07:38:01.877Z,15.94
2023-05-10T07:40:05.115Z,16.03
2023-05-10T07:42:08.208Z,16.13
2023-05-10T07:44:11.079Z,16.07
2023-05-10T07:46:13.956Z,16.11
2023-05-10T07:48:16.784Z,16.18
2023-05-10T07:50:22.026Z,16.20
2023-05-10T07:52:24.802Z,16.25
2023-05-10T07:54:27.597Z,16.23
2023-05-10T07:56:32.585Z,16.26
2023-05-10T07:58:35.508Z,16.26
2023-05-10T08:00:40.382Z,16.26
2023-05-10T08:02:43.272Z,16.19
2023-05-10T08:04:46.531Z,16.22
2023-05-10T08:06:50.813Z,16.07
2023-05-10T08:08:54.974Z,16.00
2023-05-10T08:10:57.797Z,16.03
2023-05-10T08:13:00.621Z,16.03
2023-05-10T08:15:03.392Z,16.10
2023-05-10T08:17:06.290Z,16.13
2023-05-10T08:19:09.239Z,16.15
2023-05-10T08:21:12.556Z,16.26
2023-05-10T08:23:16.867Z,16.32
2023-05-10T08:25:19.978Z,16.40
2023-05-10T08:27:22.876Z,16.42
2023-05-10T08:29:26.738Z,16.40
2023-05-10T08:31:31.211Z,16.38
2023-05-10T08:33:34.106Z,16.39
2023-05-10T08:35:36.968Z,16.33
2023-05-10T08:37:41.937Z,16.24
2023-05-10T08:39:46.730Z,16.12
2023-05-10T08:41:51.717Z,16.10
2023-05-10T08:43:55.648Z,15.98
2023-05-10T08:46:01.945Z,15.94
2023-05-10T08:48:08.387Z,15.97
2023-05-10T08:50:12.621Z,15.96
2023-05-10T08:52:17.522Z,15.97
2023-05-10T08:54:20.622Z,15.94
2023-05-10T08:56:25.400Z,15.92
2023-05-10T08:58:28.328Z,15.96
2023-05-10T09:00:31.586Z,15.86
2023-05-10T09:02:35.070Z,15.83
2023-05-10T09:04:37.991Z,15.84
2023-05-10T09:06:41.113Z,15.91
2023-05-10T09:08:45.414Z,15.81
2023-05-10T09:10:50.156Z,15.70
2023-05-10T09:12:55.988Z,15.68
2023-05-10T09:15:01.584Z,15.73
2023-05-10T09:17:04.640Z,15.78
2023-05-10T09:19:07.996Z,15.91
2023-05-10T09:21:11.977Z,16.01
2023-05-10T09:23:14.742Z,16.13
2023-05-10T09:25:18.805Z,16.21
2023-05-10T09:27:29.031Z,16.24
2023-05-10T09:29:42.441Z,16.35
2023-05-10T09:31:48.333Z,16.45
2023-05-10T09:33:51.765Z,16.51
2023-05-10T09:35:54.833Z,16.47
2023-05-10T09:37:59.554Z,16.42
2023-05-10T09:40:02.507Z,16.36
2023-05-10T09:42:07.090Z,16.33
2023-05-10T09:44:09.758Z,16.12
2023-05-10T09:46:14.027Z,15.97
2023-05-10T09:48:16.860Z,15.97
2023-05-10T09:50:21.393Z,15.95
2023-05-10T09:52:24.061Z,15.90
2023-05-10T09:54:26.843Z,16.00
2023-05-10T09:56:36.686Z,16.12
2023-05-10T09:58:39.966Z,16.07
2023-05-10T10:00:44.158Z,16.04
2023-05-10T10:02:57.341Z,16.01
2023-05-10T10:05:02.809Z,15.98
2023-05-10T10:07:06.770Z,15.96
2023-05-10T10:09:10.144Z,15.91
2023-05-10T10:11:12.940Z,15.94
2023-05-10T10:13:16.450Z,16.11
2023-05-10T10:15:20.149Z,16.15
2023-05-10T10:17:23.570Z,16.21
2023-05-10T10:19:28.796Z,16.27
2023-05-10T10:21:31.860Z,16.18
2023-05-10T10:23:34.701Z,16.22
2023-05-10T10:25:37.795Z,16.10
2023-05-10T10:27:51.177Z,16.05
2023-05-10T10:30:04.033Z,16.09
2023-05-10T10:32:19.551Z,16.21
2023-05-10T10:34:29.816Z,16.28
2023-05-10T10:36:34.811Z,16.40
2023-05-10T10:38:39.855Z,16.50
2023-05-10T10:40:43.379Z,16.63
2023-05-10T10:42:47.083Z,16.74
2023-05-10T10:44:49.916Z,16.86
2023-05-10T10:47:03.491Z,16.97
2023-05-10T10:49:18.159Z,17.13
2023-05-10T10:51:22.356Z,17.34
2023-05-10T10:53:28.345Z,17.59
2023-05-10T10:55:31.381Z,17.81
2023-05-10T10:57:35.719Z,17.87
2023-05-10T10:59:42.940Z,17.95
2023-05-10T11:01:45.989Z,18.12
2023-05-10T11:04:22.237Z,18.04
2023-05-10T11:06:33.550Z,17.85
2023-05-10T11:08:43.135Z,17.89
2023-05-10T11:11:05.482Z,17.76
2023-05-10T11:13:09.602Z,17.76
2023-05-10T11:15:12.552Z,17.78
2023-05-10T11:17:25.580Z,17.92
2023-05-10T11:19:30.101Z,17.99
2023-05-10T11:21:35.778Z,17.89
2023-05-10T11:26:06.953Z,17.91
2023-05-10T11:28:10.088Z,17.85
2023-05-10T11:30:14.386Z,17.89
2023-05-10T11:32:17.370Z,17.95
2023-05-10T11:34:27.096Z,17.88
2023-05-10T11:36:32.021Z,17.91
2023-05-10T11:38:36.263Z,17.83
2023-05-10T11:40:41.374Z,17.88
2023-05-10T11:42:44.268Z,17.93
2023-05-10T11:44:48.910Z,17.94
2023-05-10T11:46:51.839Z,17.96
2023-05-10T11:48:57.744Z,18.06
2023-05-10T11:51:00.709Z,18.23
2023-05-10T11:53:03.558Z,18.27
2023-05-10T11:55:08.645Z,18.28
2023-05-10T11:57:16.027Z,18.33
2023-05-10T11:59:18.904Z,18.37
2023-05-10T12:01:23.235Z,18.28
2023-05-10T12:03:26.225Z,18.20
2023-05-10T12:05:29.488Z,17.98
2023-05-10T12:07:32.309Z,17.95
2023-05-10T12:09:43.100Z,17.98
2023-05-10T12:11:47.693Z,18.10
2023-05-10T12:13:50.890Z,18.09
2023-05-10T12:15:53.999Z,18.19
2023-05-10T12:17:58.860Z,18.24
2023-05-10T12:20:15.795Z,18.23
2023-05-10T12:22:25.324Z,18.19
2023-05-10T12:24:28.099Z,18.21
2023-05-10T12:26:31.529Z,18.26
2023-05-10T12:28:36.387Z,18.21
2023-05-10T12:30:41.824Z,18.13
2023-05-10T12:32:46.286Z,18.34
2023-05-10T12:34:49.474Z,18.38
2023-05-10T12:36:52.706Z,18.39
2023-05-10T12:39:04.552Z,18.35
2023-05-10T12:41:09.309Z,18.35
2023-05-10T12:43:12.436Z,18.36
2023-05-10T12:45:16.944Z,18.45
2023-05-10T12:47:20.096Z,18.55
2023-05-10T12:49:23.332Z,18.51
2023-05-10T12:51:26.222Z,18.64
2023-05-10T12:53:31.346Z,18.66
2023-05-10T12:55:34.382Z,18.52
2023-05-10T12:57:39.240Z,18.55
2023-05-10T12:59:42.370Z,18.64
2023-05-10T13:01:46.747Z,18.69
2023-05-10T13:03:49.583Z,18.71
2023-05-10T13:05:52.350Z,18.81
2023-05-10T13:07:55.324Z,18.81
2023-05-10T13:09:58.174Z,18.75
2023-05-10T13:12:01.369Z,18.67
2023-05-10T13:14:14.289Z,18.53
2023-05-10T13:16:17.135Z,18.47
2023-05-10T13:18:21.433Z,18.57
2023-05-10T13:20:24.288Z,18.53
2023-05-10T13:22:39.187Z,18.51
2023-05-10T13:24:42.853Z,18.52
2023-05-10T13:26:45.790Z,18.60
2023-05-10T13:28:49.980Z,18.71
2023-05-10T13:30:52.808Z,18.68
2023-05-10T13:32:55.719Z,18.57
2023-05-10T13:34:59.843Z,18.43
2023-05-10T13:37:02.857Z,18.49
2023-05-10T13:39:06.236Z,18.66
2023-05-10T13:41:09.057Z,18.59
2023-05-10T13:43:11.866Z,18.57
2023-05-10T13:45:14.951Z,18.56
2023-05-10T13:47:17.890Z,18.60
2023-05-10T13:49:20.896Z,18.64
2023-05-10T13:51:25.136Z,18.60
2023-05-10T13:53:27.953Z,18.71
2023-05-10T13:55:31.535Z,18.85
2023-05-10T13:57:44.613Z,18.77
2023-05-10T13:59:48.039Z,18.71
2023-05-10T14:01:50.946Z,18.69
2023-05-10T14:03:54.228Z,18.75
2023-05-10T14:05:57.122Z,18.87
2023-05-10T14:08:01.287Z,18.77
2023-05-10T14:10:05.065Z,18.73
2023-05-10T14:12:07.952Z,18.63
2023-05-10T14:14:10.912Z,18.72
2023-05-10T14:16:15.676Z,18.68
2023-05-10T14:18:18.591Z,18.79
2023-05-10T14:20:21.432Z,18.96
2023-05-10T14:22:24.553Z,18.79
2023-05-10T14:24:28.780Z,18.60
2023-05-10T14:26:31.613Z,18.71
2023-05-10T14:28:34.789Z,18.84
2023-05-10T14:30:37.722Z,18.92
2023-05-10T14:32:40.753Z,18.99
2023-05-10T14:34:44.231Z,19.06
2023-05-10T14:36:47.535Z,19.16
2023-05-10T14:38:50.358Z,19.16
2023-05-10T14:40:55.061Z,19.21
2023-05-10T14:42:58.519Z,19.32
2023-05-10T14:45:01.955Z,19.33
2023-05-10T14:47:05.081Z,19.25
2023-05-10T14:49:07.977Z,19.25
2023-05-10T14:51:14.409Z,19.32
2023-05-10T14:53:19.184Z,19.31
2023-05-10T14:55:22.186Z,19.22
2023-05-10T14:57:26.802Z,19.25
2023-05-10T14:59:29.935Z,19.38
2023-05-10T15:01:34.092Z,19.44
2023-05-10T15:03:38.300Z,19.38
2023-05-10T15:05:43.641Z,19.40
2023-05-10T15:07:46.725Z,19.54
2023-05-10T15:09:49.592Z,19.67
2023-05-10T15:11:53.291Z,19.70
2023-05-10T15:13:57.873Z,19.69
2023-05-10T15:16:03.702Z,19.79
2023-05-10T15:18:07.834Z,19.81
2023-05-10T15:20:11.276Z,19.85
2023-05-10T15:22:14.165Z,19.77
2023-05-10T15:24:17.803Z,19.72
2023-05-10T15:26:20.532Z,19.73
2023-05-10T15:28:23.618Z,19.65
2023-05-10T15:30:28.039Z,19.65
2023-05-10T15:32:31.149Z,19.73
2023-05-10T15:34:37.014Z,19.78
2023-05-10T15:36:40.443Z,19.74
2023-05-10T15:38:43.797Z,19.74
2023-05-10T15:40:46.655Z,19.69
2023-05-10T15:42:49.495Z,19.82
2023-05-10T15:44:52.301Z,19.84
2023-05-10T15:46:56.753Z,19.93
2023-05-10T15:49:00.140Z,19.92
2023-05-10T15:51:03.001Z,19.88
2023-05-10T15:53:05.780Z,19.77
2023-05-10T15:55:13.100Z,19.74
2023-05-10T15:57:16.564Z,19.70
2023-05-10T15:59:19.353Z,19.55
2023-05-10T16:01:22.256Z,19.44
2023-05-10T16:03:26.604Z,19.43
2023-05-10T16:05:32.558Z,19.42
2023-05-10T16:07:35.482Z,19.49
2023-05-10T16:09:38.253Z,19.45
2023-05-10T16:11:41.936Z,19.52
2023-05-10T16:13:44.740Z,19.51
2023-05-10T16:15:47.471Z,19.56
2023-05-10T16:17:50.582Z,19.55
2023-05-10T16:19:55.025Z,19.50
2023-05-10T16:21:57.971Z,19.40
2023-05-10T16:24:04.718Z,19.32
2023-05-10T16:26:07.566Z,19.22
2023-05-10T16:28:10.758Z,19.22
2023-05-10T16:30:14.217Z,19.07
2023-05-10T16:32:17.201Z,18.93
2023-05-10T16:34:24.047Z,19.02
2023-05-10T16:36:29.586Z,19.08
2023-05-10T16:38:32.566Z,19.17
2023-05-10T16:40:35.395Z,19.16
2023-05-10T16:42:38.237Z,19.18
2023-05-10T16:44:41.333Z,19.15
2023-05-10T16:46:44.734Z,19.02
2023-05-10T16:48:47.621Z,19.06
2023-05-10T16:50:50.473Z,19.08
2023-05-10T16:52:54.752Z,19.07
2023-05-10T16:54:57.575Z,19.05
2023-05-10T16:57:01.164Z,19.02
2023-05-10T16:59:04.008Z,19.00
2023-05-10T17:01:07.210Z,18.99
2023-05-10T17:03:10.219Z,19.00
2023-05-10T17:05:13.214Z,19.06
2023-05-10T17:07:16.322Z,19.06
2023-05-10T17:09:21.116Z,19.00
2023-05-10T17:11:24.043Z,18.99
2023-05-10T17:13:26.895Z,18.98
2023-05-10T17:15:30.008Z,18.99
2023-05-10T17:17:32.879Z,18.96
2023-05-10T17:19:36.166Z,18.92
2023-05-10T17:21:38.919Z,18.91
2023-05-10T17:23:41.660Z,18.88
2023-05-10T17:25:45.748Z,18.83
2023-05-10T17:27:48.565Z,18.66
2023-05-10T17:29:51.407Z,18.63
2023-05-10T17:31:54.186Z,18.57
2023-05-10T17:33:57.189Z,18.52
2023-05-10T17:36:03.766Z,18.53
2023-05-10T17:38:07.001Z,18.47
2023-05-10T17:40:11.276Z,18.35
2023-05-10T17:42:17.467Z,18.34
2023-05-10T17:44:20.483Z,18.24
2023-05-10T17:46:23.716Z,18.19
2023-05-10T17:48:26.616Z,18.21
2023-05-10T17:50:29.418Z,18.24
2023-05-10T17:52:33.576Z,18.13
2023-05-10T17:54:36.601Z,18.11
2023-05-10T17:56:39.421Z,18.16
2023-05-10T17:58:43.566Z,18.06
2023-05-10T18:00:46.567Z,18.06
2023-05-10T18:02:49.397Z,18.12
2023-05-10T18:04:52.402Z,18.08
2023-05-10T18:07:01.079Z,18.06
2023-05-10T18:09:04.794Z,18.05
2023-05-10T18:11:07.705Z,18.02
2023-05-10T18:13:10.456Z,18.01
2023-05-10T18:15:14.887Z,18.02
2023-05-10T18:17:17.908Z,17.90
2023-05-10T18:19:22.282Z,17.87
2023-05-10T18:21:25.082Z,17.84
2023-05-10T18:23:27.899Z,17.80
2023-05-10T18:25:31.070Z,17.86
2023-05-10T18:27:34.359Z,17.78
2023-05-10T18:29:37.711Z,17.69
2023-05-10T18:31:42.008Z,17.75
2023-05-10T18:33:45.911Z,17.65
2023-05-10T18:35:48.783Z,17.61
2023-05-10T18:37:53.143Z,17.61
2023-05-10T18:39:56.254Z,17.62
2023-05-10T18:41:59.070Z,17.67
2023-05-10T18:44:01.843Z,17.65
2023-05-10T18:46:04.807Z,17.62
2023-05-10T18:48:09.053Z,17.65
2023-05-10T18:50:13.012Z,17.56
2023-05-10T18:52:16.128Z,17.54
2023-05-10T18:54:19.006Z,17.35
2023-05-10T18:56:22.404Z,17.31
2023-05-10T18:58:25.666Z,17.27
2023-05-10T19:00:28.715Z,17.19
2023-05-10T19:02:31.541Z,17.16
2023-05-10T19:04:35.762Z,16.99
2023-05-10T19:06:38.574Z,16.95
2023-05-10T19:08:41.426Z,16.98
2023-05-10T19:10:45.754Z,16.91
2023-05-10T19:12:48.658Z,16.77
2023-05-10T19:14:51.486Z,16.69
2023-05-10T19:16:54.577Z,16.65
2023-05-10T19:18:57.451Z,16.66
2023-05-10T19:21:03.543Z,16.77
2023-05-10T19:23:10.085Z,16.74
2023-05-10T19:25:14.079Z,16.66
2023-05-10T19:27:17.035Z,16.67
2023-05-10T19:29:19.899Z,16.63
2023-05-10T19:31:23.276Z,16.64
2023-05-10T19:33:26.136Z,16.62
2023-05-10T19:35:29.069Z,16.61
2023-05-10T19:37:33.187Z,16.57
2023-05-10T19:39:36.041Z,16.49
2023-05-10T19:41:38.852Z,16.45
2023-05-10T19:43:42.635Z,16.44
2023-05-10T19:45:45.560Z,16.33
2023-05-10T19:47:48.487Z,16.34
2023-05-10T19:49:51.412Z,16.37
2023-05-10T19:51:54.234Z,16.42
2023-05-10T19:53:58.446Z,16.37
2023-05-10T19:56:06.179Z,16.41
2023-05-10T19:58:09.197Z,16.37
2023-05-10T20:00:13.175Z,16.40
2023-05-10T20:02:15.946Z,16.38
2023-05-10T20:04:18.710Z,16.30
2023-05-10T20:06:21.564Z,16.32
2023-05-10T20:08:24.400Z,16.29
2023-05-10T20:10:28.575Z,16.23
2023-05-10T20:12:33.559Z,16.26
2023-05-10T20:14:36.414Z,16.27
2023-05-10T20:16:39.279Z,16.28
2023-05-10T20:18:42.153Z,16.29
2023-05-10T20:20:46.118Z,16.33
2023-05-10T20:22:49.652Z,16.29
2023-05-10T20:24:54.377Z,16.29
2023-05-10T20:27:00.426Z,16.29
2023-05-10T20:29:03.743Z,16.28
2023-05-10T20:31:06.614Z,16.30
2023-05-10T20:33:09.645Z,16.30
2023-05-10T20:35:12.590Z,16.24
2023-05-10T20:37:18.200Z,16.22
2023-05-10T20:39:21.357Z,16.21
2023-05-10T20:41:24.727Z,16.18
2023-05-10T20:43:29.218Z,16.15
2023-05-10T20:45:32.020Z,16.12
2023-05-10T20:47:34.990Z,16.08
2023-05-10T20:49:38.013Z,16.07
2023-05-10T20:51:40.867Z,16.02
2023-05-10T20:53:43.679Z,15.98
2023-05-10T20:55:46.426Z,15.96
2023-05-10T20:57:49.221Z,15.95
2023-05-10T20:59:53.688Z,15.91
2023-05-10T21:01:58.036Z,15.79
2023-05-10T21:04:00.920Z,15.74
2023-05-10T21:06:03.825Z,15.70
2023-05-10T21:08:07.273Z,15.68
2023-05-10T21:10:12.240Z,15.65
2023-05-10T21:12:15.155Z,15.63
2023-05-10T21:14:18.038Z,15.60
2023-05-10T21:16:22.265Z,15.57
2023-05-10T21:18:25.340Z,15.54
2023-05-10T21:20:28.226Z,15.51
2023-05-10T21:22:31.002Z,15.46
2023-05-10T21:24:35.010Z,15.46
2023-05-10T21:26:38.009Z,15.43
2023-05-10T21:28:42.335Z,15.40
2023-05-10T21:30:45.139Z,15.36
2023-05-10T21:32:49.271Z,15.33
2023-05-10T21:34:52.074Z,15.24
2023-05-10T21:36:55.439Z,15.23
2023-05-10T21:38:58.427Z,15.21
2023-05-10T21:41:01.969Z,15.17
2023-05-10T21:43:04.775Z,15.12
2023-05-10T21:45:08.536Z,15.08
2023-05-10T21:47:11.403Z,15.07
2023-05-10T21:49:15.550Z,15.12
2023-05-10T21:51:18.349Z,15.11
2023-05-10T21:53:22.326Z,15.10
2023-05-10T21:55:25.486Z,15.06
2023-05-10T21:57:28.392Z,15.06
2023-05-10T21:59:31.155Z,15.04
2023-05-10T22:01:34.039Z,15.04
2023-05-10T22:03:36.984Z,15.03
2023-05-10T22:05:41.217Z,15.00
2023-05-10T22:07:44.054Z,14.94
2023-05-10T22:09:46.858Z,14.93
2023-05-10T22:11:52.409Z,14.90
2023-05-10T22:13:55.217Z,14.90
2023-05-10T22:15:58.033Z,14.86
2023-05-10T22:18:00.913Z,14.87
2023-05-10T22:20:03.709Z,14.84
2023-05-10T22:22:07.856Z,14.83
2023-05-10T22:24:10.666Z,14.81
2023-05-10T22:26:13.480Z,14.78
2023-05-10T22:28:16.362Z,14.78
2023-05-10T22:30:19.828Z,14.79
2023-05-10T22:32:22.894Z,14.75
2023-05-10T22:34:25.778Z,14.73
2023-05-10T22:36:28.968Z,14.73
2023-05-10T22:38:33.248Z,14.72
2023-05-10T22:40:36.091Z,14.69
2023-05-10T22:42:39.020Z,14.69
2023-05-10T22:44:41.847Z,14.69
2023-05-10T22:46:44.811Z,14.69
2023-05-10T22:48:48.008Z,14.66
2023-05-10T22:50:50.903Z,14.63
2023-05-10T22:52:53.721Z,14.62
2023-05-10T22:54:58.079Z,14.58
2023-05-10T22:57:00.904Z,14.55
2023-05-10T22:59:03.765Z,14.54
2023-05-10T23:01:06.632Z,14.51
2023-05-10T23:03:09.636Z,14.50
2023-05-10T23:05:13.148Z,14.47
2023-05-10T23:07:15.982Z,14.46
2023-05-10T23:09:18.772Z,14.45
2023-05-10T23:11:22.878Z,14.41
2023-05-10T23:13:25.709Z,14.39
2023-05-10T23:15:28.448Z,14.40
2023-05-10T23:17:31.350Z,14.36
2023-05-10T23:19:34.443Z,14.35
2023-05-10T23:21:37.162Z,14.31
2023-05-10T23:23:40.031Z,14.29
2023-05-10T23:25:42.837Z,14.25
2023-05-10T23:27:46.961Z,14.23
2023-05-10T23:29:52.249Z,14.21
2023-05-10T23:31:55.052Z,14.18
2023-05-10T23:33:57.915Z,14.15
2023-05-10T23:36:00.860Z,14.12
2023-05-10T23:38:03.694Z,14.13
2023-05-10T23:40:08.064Z,14.11
2023-05-10T23:42:10.880Z,14.07
2023-05-10T23:44:15.021Z,14.08
2023-05-10T23:46:17.886Z,14.10
2023-05-10T23:48:20.809Z,14.13
2023-05-10T23:50:23.596Z,14.15
2023-05-10T23:52:26.456Z,14.13
2023-05-10T23:54:29.485Z,14.10
2023-05-10T23:56:32.312Z,14.09
2023-05-10T23:58:35.155Z,14.11
